Main page
METAR-TAF:

METAR-TAF

Airports :

Clearfield–Lawrence Airport

Clearfield, Pennsylvania, United States

latitude: 41-02-48N, longitude: 078-24-42W, elevation: 1515 ft

Current weather observation

The report was made 12 minutes ago, at 21:54 UTC
Wind 15 mph from the North with gusts up to 24 mph
Temperature 52°F
Humidity 37%
Pressure 29.81 in. Hg
Visibility: 10 miles
Broken clouds at a height of 6500 ft

METAR: KFIG 012154Z AUTO 36013G21KT 10SM BKN065 11/M03 A2981 RMK AO2 SLP100 T01111033

Time: 18:06 (22:06 UTC)


TAF: missing

Weather observations and forecasts of more than 4000 airports (METAR and TAF reports).

The available stations are represented by yellow and red dots on the map.

Hover mouse over dot to see the name of the station.

Then click to see weather observations and forecasts.

To change the map : click on the green buttons with a black cross to zoom in, on the green button with a dash to zoom out, or on the green arrows for adjacent maps.


METAR-TAF: